Pagina principale
METAR-TAF:

METAR-TAF

Aeroporti :

Frosinone, Italia

latitudine: 41-38N, longitudine: 013-18E, altezza: 180 m

Osservazione

Il bollettino è stato emesso 6 ore e 33 minuti fa, alle 17:55 UTC
Vento calmo
Temperature 20°C
Umidità 60%
Pressione 1015 hPa
Visibilità 10 km o più
nessuna nube inferiore a 1500 m e nessun cumulonembo

METAR: LIRH 151755Z 00000KT CAVOK 20/12 Q1015 RMK BKN BKN180 MON LIB NC VIS MIN 9999 WIND THR16 00000KT BLU

Ora: 02:28 (00:28 UTC)

Previsione

Il bollettino è stato emesso 10 ore e 28 minuti fa, alle 14:00 UTC
Previsione valida dal 15 alle 15 UTC al 15 alle 24 UTC
Vento 3 kt da direzioni variabili
Visibilità 10 km o più
Poco nuvoloso ad un'altezza di 4000 ft

TAF: LIRH 151400Z 1515/1524 VRB03KT 9999 FEW040

Osservazioni e previsioni meteorologiche di più di 4000 aeroporti (messaggi METAR e TAF).

Le stazioni disponibili sono rappresentate dai dischi gialli e rossi sulla carta.

Puntare il mouse per vedere il nome della stazione.

Clicca sopra per visualizzare le osservazioni e previsioni meteorologiche.

Per cambiare la mappa : fare clic sui pulsanti verdi con una croce nera per ingrandire, il pulsante verde con un trattino per diminuire, o sulla freccia verde per le mappe adiacenti.


METAR-TAF: